createdAt,value
2022-08-22T00:03:02.939Z,1012.80
2022-08-22T00:03:27.912Z,1013.12
2022-08-22T00:08:34.958Z,1013.17
2022-08-22T00:13:42.247Z,1013.17
2022-08-22T00:18:48.896Z,1013.10
2022-08-22T00:23:56.203Z,1013.06
2022-08-22T00:29:03.144Z,1013.02
2022-08-22T00:34:09.992Z,1013.02
2022-08-22T00:39:17.445Z,1013.01
2022-08-22T00:44:24.366Z,1013.01
2022-08-22T00:49:31.712Z,1012.97
2022-08-22T00:54:38.656Z,1012.95
2022-08-22T00:59:45.478Z,1012.92
2022-08-22T01:04:53.017Z,1012.98
2022-08-22T01:09:59.870Z,1013.13
2022-08-22T01:15:06.712Z,1013.20
2022-08-22T01:20:14.133Z,1013.27
2022-08-22T01:25:22.369Z,1013.35
2022-08-22T01:30:28.196Z,1013.33
2022-08-22T01:35:35.006Z,1013.35
2022-08-22T01:40:53.411Z,1013.44
2022-08-22T01:45:49.258Z,1013.51
2022-08-22T01:50:56.547Z,1013.54
2022-08-22T01:56:03.361Z,1013.55
2022-08-22T02:01:10.679Z,1013.51
2022-08-22T02:06:17.956Z,1013.40
2022-08-22T02:11:24.866Z,1013.36
2022-08-22T02:16:31.713Z,1013.35
2022-08-22T02:21:39.170Z,1013.32
2022-08-22T02:26:45.891Z,1013.33
2022-08-22T02:31:53.358Z,1013.36
2022-08-22T02:37:00.219Z,1013.43
2022-08-22T02:42:07.577Z,1013.46
2022-08-22T02:47:14.391Z,1013.42
2022-08-22T02:52:21.903Z,1013.40
2022-08-22T02:57:28.708Z,1013.43
2022-08-22T03:02:35.486Z,1013.40
2022-08-22T03:07:42.951Z,1013.32
2022-08-22T03:12:49.692Z,1013.30
2022-08-22T03:17:57.107Z,1013.36
2022-08-22T03:23:03.993Z,1013.37
2022-08-22T03:28:11.237Z,1013.33
2022-08-22T03:33:18.313Z,1013.29
2022-08-22T03:38:25.314Z,1013.23
2022-08-22T03:43:32.622Z,1013.16
2022-08-22T03:48:39.473Z,1013.22
2022-08-22T03:53:46.926Z,1013.27
2022-08-22T03:58:53.725Z,1013.29
2022-08-22T04:04:01.444Z,1013.35
2022-08-22T04:09:07.823Z,1013.41
2022-08-22T04:14:15.166Z,1013.44
2022-08-22T04:19:21.971Z,1013.48
2022-08-22T04:24:29.252Z,1013.50
2022-08-22T04:29:36.332Z,1013.52
2022-08-22T04:34:43.280Z,1013.56
2022-08-22T04:39:50.731Z,1013.62
2022-08-22T04:44:57.527Z,1013.67
2022-08-22T04:50:04.828Z,1013.69
2022-08-22T04:55:11.633Z,1013.63
2022-08-22T05:00:18.962Z,1013.57
2022-08-22T05:05:25.819Z,1013.62
2022-08-22T05:10:33.246Z,1013.72
2022-08-22T05:15:40.068Z,1013.75
2022-08-22T05:20:47.579Z,1013.82
2022-08-22T05:25:54.536Z,1013.93
2022-08-22T05:31:01.311Z,1013.98
2022-08-22T05:36:08.604Z,1014.01
2022-08-22T05:41:15.569Z,1014.07
2022-08-22T05:46:26.919Z,1014.09
2022-08-22T05:51:29.951Z,1014.11
2022-08-22T05:56:36.814Z,1014.14
2022-08-22T06:01:44.347Z,1014.18
2022-08-22T06:06:51.368Z,1014.28
2022-08-22T06:11:58.266Z,1014.33
2022-08-22T06:17:05.040Z,1014.37
2022-08-22T06:22:13.814Z,1014.56
2022-08-22T06:27:20.360Z,1014.55
2022-08-22T06:32:52.896Z,1014.54
2022-08-22T06:37:33.504Z,1014.68
2022-08-22T06:42:41.724Z,1014.66
2022-08-22T06:47:50.183Z,1014.75
2022-08-22T06:52:54.992Z,1014.90
2022-08-22T06:58:02.328Z,1014.96
2022-08-22T07:03:09.206Z,1014.92
2022-08-22T07:08:16.617Z,1014.93
2022-08-22T07:13:23.423Z,1014.97
2022-08-22T07:18:30.781Z,1014.98
2022-08-22T07:23:38.399Z,1015.03
2022-08-22T07:28:50.810Z,1015.10
2022-08-22T07:33:52.114Z,1015.14
2022-08-22T07:38:59.418Z,1015.15
2022-08-22T07:44:06.430Z,1015.11
2022-08-22T07:49:13.433Z,1015.15
2022-08-22T07:54:20.809Z,1015.15
2022-08-22T07:59:27.602Z,1015.15
2022-08-22T08:04:39.487Z,1015.12
2022-08-22T08:09:41.768Z,1015.11
2022-08-22T08:14:49.086Z,1015.16
2022-08-22T08:19:56.412Z,1015.13
2022-08-22T08:25:03.296Z,1015.20
2022-08-22T08:25:03.314Z,1015.20
2022-08-22T08:30:15.080Z,1015.20
2022-08-22T08:35:17.718Z,1015.17
2022-08-22T08:40:24.739Z,1015.17
2022-08-22T08:45:32.877Z,1015.15
2022-08-22T08:50:39.143Z,1015.15
2022-08-22T08:55:45.932Z,1015.12
2022-08-22T09:00:53.313Z,1015.08
2022-08-22T09:06:00.557Z,1015.08
2022-08-22T09:11:09.757Z,1015.12
2022-08-22T09:16:14.856Z,1015.21
2022-08-22T09:21:30.657Z,1015.16
2022-08-22T09:26:29.002Z,1015.08
2022-08-22T09:31:51.411Z,1015.14
2022-08-22T09:36:43.173Z,1015.17
2022-08-22T09:41:51.632Z,1015.26
2022-08-22T09:46:57.416Z,1015.37
2022-08-22T09:52:15.121Z,1015.44
2022-08-22T09:57:13.922Z,1015.47
2022-08-22T10:02:18.871Z,1015.47
2022-08-22T10:07:26.151Z,1015.40
2022-08-22T10:12:36.374Z,1015.49
2022-08-22T10:17:41.111Z,1015.45
2022-08-22T10:22:47.329Z,1015.47
2022-08-22T10:27:54.606Z,1015.52
2022-08-22T10:33:02.060Z,1015.57
2022-08-22T10:38:10.705Z,1015.53
2022-08-22T10:43:16.514Z,1015.54
2022-08-22T10:48:23.956Z,1015.25
2022-08-22T10:53:32.404Z,1014.49
2022-08-22T10:58:40.892Z,1014.32
2022-08-22T11:08:51.809Z,1014.94
2022-08-22T11:13:58.594Z,1015.07
2022-08-22T11:19:14.989Z,1015.26
2022-08-22T11:24:17.421Z,1015.23
2022-08-22T11:29:20.170Z,1015.33
2022-08-22T11:34:27.410Z,1015.28
2022-08-22T11:39:34.771Z,1015.30
2022-08-22T11:44:50.020Z,1015.26
2022-08-22T11:49:48.828Z,1015.29
2022-08-22T11:54:56.090Z,1015.27
2022-08-22T12:00:03.866Z,1015.21
2022-08-22T12:05:10.159Z,1015.24
2022-08-22T12:10:17.768Z,1015.21
2022-08-22T12:15:24.648Z,1015.19
2022-08-22T12:20:31.858Z,1015.21
2022-08-22T12:25:38.637Z,1015.21
2022-08-22T12:30:45.882Z,1015.17
2022-08-22T12:35:53.367Z,1015.03
2022-08-22T12:41:00.167Z,1015.05
2022-08-22T12:46:07.463Z,1014.99
2022-08-22T12:51:17.297Z,1014.97
2022-08-22T12:56:22.590Z,1014.93
2022-08-22T13:01:33.854Z,1014.99
2022-08-22T13:06:35.831Z,1015.01
2022-08-22T13:11:43.059Z,1014.94
2022-08-22T13:16:50.990Z,1014.92
2022-08-22T13:21:57.403Z,1014.86
2022-08-22T13:27:05.788Z,1014.91
2022-08-22T13:32:11.458Z,1014.84
2022-08-22T13:37:20.173Z,1014.79
2022-08-22T13:42:30.521Z,1014.79
2022-08-22T13:47:34.386Z,1014.79
2022-08-22T13:52:40.023Z,1014.80
2022-08-22T13:57:52.032Z,1014.72
2022-08-22T14:02:54.204Z,1014.77
2022-08-22T14:08:01.724Z,1014.83
2022-08-22T14:13:08.773Z,1014.82
2022-08-22T14:18:15.569Z,1014.91
2022-08-22T14:23:23.902Z,1014.93
2022-08-22T14:28:29.845Z,1014.87
2022-08-22T14:33:40.001Z,1014.80
2022-08-22T14:38:46.080Z,1014.78
2022-08-22T14:43:51.469Z,1014.78
2022-08-22T14:48:58.428Z,1014.72
2022-08-22T14:54:05.869Z,1014.68
2022-08-22T14:59:12.632Z,1014.71
2022-08-22T15:04:20.096Z,1014.67
2022-08-22T15:09:26.882Z,1014.63
2022-08-22T15:14:34.217Z,1014.67
2022-08-22T15:24:48.202Z,1014.66
2022-08-22T15:29:55.478Z,1014.68
2022-08-22T15:35:03.034Z,1014.69
2022-08-22T15:35:03.098Z,1014.69
2022-08-22T15:40:11.863Z,1014.67
2022-08-22T15:45:16.874Z,1014.65
2022-08-22T15:50:24.139Z,1014.65
2022-08-22T15:55:31.019Z,1014.65
2022-08-22T16:00:41.959Z,1014.71
2022-08-22T16:05:45.504Z,1014.77
2022-08-22T16:10:52.383Z,1014.78
2022-08-22T16:15:59.694Z,1014.76
2022-08-22T16:21:06.421Z,1014.82
2022-08-22T16:26:13.655Z,1014.78
2022-08-22T16:31:21.082Z,1014.77
2022-08-22T16:36:28.002Z,1014.76
2022-08-22T16:41:35.283Z,1014.70
2022-08-22T16:46:42.064Z,1014.58
2022-08-22T16:51:49.441Z,1014.65
2022-08-22T16:56:56.742Z,1014.73
2022-08-22T17:02:03.520Z,1014.83
2022-08-22T17:07:10.832Z,1014.93
2022-08-22T17:12:17.602Z,1015.00
2022-08-22T17:17:24.804Z,1015.00
2022-08-22T17:22:32.075Z,1014.99
2022-08-22T17:27:39.456Z,1015.00
2022-08-22T17:32:46.230Z,1015.03
2022-08-22T17:37:53.482Z,1014.99
2022-08-22T17:43:00.318Z,1015.06
2022-08-22T17:48:07.822Z,1015.08
2022-08-22T17:53:16.655Z,1015.11
2022-08-22T17:58:37.557Z,1015.18
2022-08-22T18:03:28.840Z,1015.25
2022-08-22T18:08:37.812Z,1015.27
2022-08-22T18:13:43.093Z,1015.26
2022-08-22T18:18:50.454Z,1015.37
2022-08-22T18:23:57.339Z,1015.44
2022-08-22T18:29:04.725Z,1015.46
2022-08-22T18:34:11.524Z,1015.56
2022-08-22T18:39:18.965Z,1015.63
2022-08-22T18:44:25.753Z,1015.65
2022-08-22T18:49:33.245Z,1015.63
2022-08-22T18:54:40.158Z,1015.58
2022-08-22T18:59:46.952Z,1015.54
2022-08-22T19:04:54.348Z,1015.51
2022-08-22T19:10:01.601Z,1015.53
2022-08-22T19:15:08.476Z,1015.57
2022-08-22T19:20:15.864Z,1015.64
2022-08-22T19:25:22.624Z,1015.67
2022-08-22T19:30:30.000Z,1015.71
2022-08-22T19:35:36.928Z,1015.76
2022-08-22T19:40:44.255Z,1015.85
2022-08-22T19:45:51.092Z,1015.86
2022-08-22T19:50:58.365Z,1015.85
2022-08-22T19:56:05.267Z,1015.85
2022-08-22T20:01:12.566Z,1015.86
2022-08-22T20:06:40.671Z,1015.82
2022-08-22T20:11:26.799Z,1015.77
2022-08-22T20:16:33.581Z,1015.76
2022-08-22T20:21:40.986Z,1015.79
2022-08-22T20:27:12.212Z,1015.79
2022-08-22T20:31:58.656Z,1015.78
2022-08-22T20:37:23.740Z,1015.83
2022-08-22T20:42:09.245Z,1015.79
2022-08-22T20:47:21.229Z,1015.77
2022-08-22T20:52:23.340Z,1015.82
2022-08-22T20:57:30.588Z,1015.84
2022-08-22T21:02:37.927Z,1015.88
2022-08-22T21:07:45.031Z,1015.93
2022-08-22T21:12:51.858Z,1015.95
2022-08-22T21:17:59.380Z,1015.93
2022-08-22T21:23:06.143Z,1015.90
2022-08-22T21:28:13.406Z,1015.89
2022-08-22T21:33:23.839Z,1015.89
2022-08-22T21:38:27.872Z,1015.93
2022-08-22T21:43:34.687Z,1016.00
2022-08-22T21:48:41.639Z,1016.04
2022-08-22T21:58:56.089Z,1016.11
2022-08-22T22:04:02.891Z,1016.05
2022-08-22T22:09:14.573Z,1015.99
2022-08-22T22:14:16.942Z,1015.98
2022-08-22T22:19:24.225Z,1016.01
2022-08-22T22:24:31.533Z,1016.03
2022-08-22T22:29:38.337Z,1016.05
2022-08-22T22:34:45.700Z,1016.11
2022-08-22T22:39:52.701Z,1016.10
2022-08-22T22:45:00.072Z,1016.07
2022-08-22T22:50:06.954Z,1016.09
2022-08-22T22:55:24.168Z,1016.02
2022-08-22T23:00:21.143Z,1015.99
2022-08-22T23:05:27.983Z,1015.96
2022-08-22T23:10:35.394Z,1015.96
2022-08-22T23:15:42.361Z,1015.90
2022-08-22T23:20:49.550Z,1015.89
2022-08-22T23:25:56.306Z,1015.85
2022-08-22T23:31:04.604Z,1015.89
2022-08-22T23:36:10.842Z,1015.85
2022-08-22T23:41:17.668Z,1015.83
2022-08-22T23:46:25.080Z,1015.82
2022-08-22T23:51:32.016Z,1015.76
2022-08-22T23:56:39.295Z,1015.72
